createdAt,value
2018-06-08T00:00:08.269Z,52.94
2018-06-08T00:00:39.865Z,52.79
2018-06-08T00:01:11.453Z,52.68
2018-06-08T00:01:43.074Z,52.73
2018-06-08T00:02:14.644Z,52.89
2018-06-08T00:02:46.245Z,52.92
2018-06-08T00:03:17.901Z,52.91
2018-06-08T00:03:49.515Z,52.89
2018-06-08T00:04:21.107Z,52.86
2018-06-08T00:04:52.672Z,52.95
2018-06-08T00:05:24.263Z,52.96
2018-06-08T00:05:55.856Z,53.04
2018-06-08T00:06:27.437Z,53.04
2018-06-08T00:06:59.021Z,53.01
2018-06-08T00:07:30.595Z,53.04
2018-06-08T00:08:02.178Z,53.11
2018-06-08T00:08:33.812Z,53.16
2018-06-08T00:09:05.393Z,53.15
2018-06-08T00:09:36.997Z,53.24
2018-06-08T00:10:08.576Z,53.31
2018-06-08T00:10:40.186Z,53.29
2018-06-08T00:11:11.760Z,53.30
2018-06-08T00:11:43.372Z,53.36
2018-06-08T00:12:14.947Z,53.44
2018-06-08T00:12:46.522Z,53.51
2018-06-08T00:13:18.129Z,53.54
2018-06-08T00:13:49.727Z,53.56
2018-06-08T00:14:21.332Z,53.58
2018-06-08T00:14:52.945Z,53.70
2018-06-08T00:15:24.528Z,53.75
2018-06-08T00:15:56.138Z,53.85
2018-06-08T00:16:27.773Z,53.85
2018-06-08T00:16:59.373Z,53.85
2018-06-08T00:17:30.982Z,53.86
2018-06-08T00:18:02.570Z,53.87
2018-06-08T00:18:34.213Z,53.88
2018-06-08T00:19:05.821Z,53.90
2018-06-08T00:19:37.405Z,54.02
2018-06-08T00:20:08.990Z,54.14
2018-06-08T00:20:40.563Z,54.16
2018-06-08T00:21:12.160Z,54.14
2018-06-08T00:21:43.745Z,54.20
2018-06-08T00:22:15.333Z,54.28
2018-06-08T00:22:46.958Z,54.36
2018-06-08T00:23:18.555Z,54.31
2018-06-08T00:23:50.144Z,54.44
2018-06-08T00:24:21.725Z,54.50
2018-06-08T00:24:53.325Z,54.51
2018-06-08T00:25:24.972Z,54.52
2018-06-08T00:25:56.556Z,54.65
2018-06-08T00:26:28.158Z,54.65
2018-06-08T00:26:59.755Z,54.71
2018-06-08T00:27:31.363Z,54.70
2018-06-08T00:28:03.006Z,54.78
2018-06-08T00:28:34.609Z,54.80
2018-06-08T00:29:06.226Z,54.84
2018-06-08T00:29:37.821Z,54.84
2018-06-08T00:30:09.400Z,54.94
2018-06-08T00:30:41.001Z,55.00
2018-06-08T00:31:12.578Z,55.00
2018-06-08T00:31:44.167Z,55.10
2018-06-08T00:32:15.777Z,55.13
2018-06-08T00:32:47.361Z,55.06
2018-06-08T00:33:18.984Z,55.10
2018-06-08T00:33:50.561Z,55.16
2018-06-08T00:34:22.166Z,55.14
2018-06-08T00:34:53.740Z,55.23
2018-06-08T00:35:25.317Z,55.28
2018-06-08T00:35:56.901Z,55.26
2018-06-08T00:36:28.469Z,55.34
2018-06-08T00:37:00.049Z,55.34
2018-06-08T00:37:31.634Z,55.34
2018-06-08T00:38:03.204Z,55.36
2018-06-08T00:38:34.854Z,55.47
2018-06-08T00:39:06.448Z,55.44
2018-06-08T00:39:38.021Z,55.54
2018-06-08T00:40:09.621Z,55.52
2018-06-08T00:40:41.257Z,55.51
2018-06-08T00:41:12.841Z,55.60
2018-06-08T00:41:44.422Z,55.66
2018-06-08T00:42:16.031Z,55.60
2018-06-08T00:42:47.633Z,55.66
2018-06-08T00:43:19.227Z,55.77
2018-06-08T00:43:50.809Z,55.80
2018-06-08T00:44:22.404Z,55.78
2018-06-08T00:44:54.016Z,55.84
2018-06-08T00:45:25.601Z,55.87
2018-06-08T00:45:57.200Z,55.87
2018-06-08T00:46:28.809Z,56.04
2018-06-08T00:47:00.461Z,56.09
2018-06-08T00:47:32.056Z,56.03
2018-06-08T00:48:03.638Z,56.05
2018-06-08T00:48:35.230Z,56.01
2018-06-08T00:49:06.813Z,56.13
2018-06-08T00:49:38.417Z,56.17
2018-06-08T00:50:10.021Z,56.23
2018-06-08T00:50:41.619Z,56.23
2018-06-08T00:51:13.275Z,56.53
2018-06-08T00:51:44.852Z,56.39
2018-06-08T00:52:16.420Z,56.42
2018-06-08T00:52:48.081Z,56.34
2018-06-08T00:53:19.656Z,56.40
2018-06-08T00:53:51.336Z,56.52
2018-06-08T00:54:22.942Z,56.46
2018-06-08T00:54:54.524Z,56.60
2018-06-08T00:55:26.105Z,56.54
2018-06-08T00:55:57.710Z,56.56
2018-06-08T00:56:29.365Z,56.54
2018-06-08T00:57:00.974Z,56.63
2018-06-08T00:57:32.586Z,56.76
2018-06-08T00:58:04.194Z,56.71
2018-06-08T00:58:35.774Z,56.73
2018-06-08T00:59:07.378Z,56.64
2018-06-08T00:59:38.958Z,56.64
2018-06-08T01:00:10.542Z,56.61
2018-06-08T01:00:42.116Z,56.61
2018-06-08T01:01:13.707Z,56.72
2018-06-08T01:01:45.317Z,56.79
2018-06-08T01:02:16.916Z,56.79
2018-06-08T01:02:48.521Z,56.68
2018-06-08T01:03:20.217Z,56.72
2018-06-08T01:03:51.822Z,56.70
2018-06-08T01:04:23.418Z,56.87
2018-06-08T01:04:54.999Z,56.91
2018-06-08T01:05:26.605Z,56.96
2018-06-08T01:05:58.199Z,56.96
2018-06-08T01:06:29.861Z,56.87
2018-06-08T01:07:01.465Z,57.02
2018-06-08T01:07:33.036Z,57.07
2018-06-08T01:08:04.613Z,56.98
2018-06-08T01:08:36.218Z,57.06
2018-06-08T01:09:07.801Z,57.14
2018-06-08T01:09:39.401Z,56.99
2018-06-08T01:10:10.981Z,57.11
2018-06-08T01:10:42.556Z,57.20
2018-06-08T01:11:14.128Z,57.24
2018-06-08T01:11:46.074Z,57.30
2018-06-08T01:12:17.753Z,57.79
2018-06-08T01:12:49.337Z,57.77
2018-06-08T01:13:20.982Z,57.59
2018-06-08T01:13:52.589Z,57.60
2018-06-08T01:14:24.192Z,57.53
2018-06-08T01:14:55.781Z,57.67
2018-06-08T01:15:27.374Z,57.68
2018-06-08T01:15:58.960Z,57.75
2018-06-08T01:16:30.556Z,57.80
2018-06-08T01:17:02.162Z,58.02
2018-06-08T01:17:33.776Z,57.71
2018-06-08T01:18:05.378Z,57.88
2018-06-08T01:18:37.001Z,57.76
2018-06-08T01:19:08.601Z,57.79
2018-06-08T01:19:40.185Z,57.75
2018-06-08T01:20:11.761Z,57.78
2018-06-08T01:20:43.360Z,57.70
2018-06-08T01:21:14.958Z,57.62
2018-06-08T01:21:47.168Z,57.59
2018-06-08T01:22:18.798Z,57.65
2018-06-08T01:22:50.385Z,57.82
2018-06-08T01:23:21.980Z,57.83
2018-06-08T01:23:53.555Z,57.67
2018-06-08T01:24:25.162Z,57.69
2018-06-08T01:24:56.797Z,57.78
2018-06-08T01:25:28.477Z,57.81
2018-06-08T01:26:00.045Z,57.68
2018-06-08T01:26:31.649Z,57.95
2018-06-08T01:27:03.254Z,57.87
2018-06-08T01:27:34.909Z,57.89
2018-06-08T01:28:06.521Z,58.13
2018-06-08T01:28:38.109Z,58.20
2018-06-08T01:29:09.699Z,58.27
2018-06-08T01:29:41.305Z,58.16
2018-06-08T01:30:12.909Z,58.08
2018-06-08T01:30:44.489Z,58.25
2018-06-08T01:31:16.055Z,58.12
2018-06-08T01:31:47.661Z,57.97
2018-06-08T01:32:19.270Z,58.20
2018-06-08T01:32:50.929Z,58.09
2018-06-08T01:33:22.514Z,58.13
2018-06-08T01:33:54.138Z,58.03
2018-06-08T01:34:25.737Z,58.20
2018-06-08T01:34:57.342Z,58.04
2018-06-08T01:35:28.949Z,58.08
2018-06-08T01:36:00.558Z,58.21
2018-06-08T01:36:32.154Z,58.06
2018-06-08T01:37:03.732Z,58.16
2018-06-08T01:37:35.334Z,58.08
2018-06-08T01:38:06.940Z,58.06
2018-06-08T01:38:38.524Z,58.03
2018-06-08T01:39:10.163Z,58.26
2018-06-08T01:39:41.825Z,58.11
2018-06-08T01:40:13.434Z,58.16
2018-06-08T01:40:45.046Z,58.21
2018-06-08T01:41:16.653Z,58.09
2018-06-08T01:41:48.262Z,58.05
2018-06-08T01:42:19.851Z,58.18
2018-06-08T01:42:51.449Z,58.14
2018-06-08T01:43:23.062Z,58.09
2018-06-08T01:43:54.667Z,58.18
2018-06-08T01:44:26.316Z,58.15
2018-06-08T01:44:57.897Z,58.23
2018-06-08T01:45:29.467Z,58.15
2018-06-08T01:46:01.055Z,58.23
2018-06-08T01:46:32.661Z,58.29
2018-06-08T01:47:04.271Z,58.11
2018-06-08T01:47:35.861Z,58.09
2018-06-08T01:48:07.466Z,58.15
2018-06-08T01:48:39.050Z,58.09
2018-06-08T01:49:10.664Z,58.18
2018-06-08T01:49:42.269Z,58.32
2018-06-08T01:50:13.850Z,58.27
2018-06-08T01:50:45.434Z,58.38
2018-06-08T01:51:17.027Z,58.20
2018-06-08T01:51:48.625Z,58.67
2018-06-08T01:52:20.229Z,58.52
2018-06-08T01:52:51.838Z,58.46
2018-06-08T01:53:23.432Z,58.51
2018-06-08T01:53:55.058Z,58.47
2018-06-08T01:54:26.637Z,58.54
2018-06-08T01:54:58.231Z,58.85
2018-06-08T01:55:29.837Z,58.77
2018-06-08T01:56:01.418Z,58.77
2018-06-08T01:56:33.011Z,59.04
2018-06-08T01:57:04.588Z,59.03
2018-06-08T01:57:36.204Z,58.87
2018-06-08T01:58:07.780Z,59.00
2018-06-08T01:58:39.357Z,58.91
2018-06-08T01:59:10.976Z,59.01
2018-06-08T01:59:42.581Z,59.13
2018-06-08T02:00:14.179Z,59.18
2018-06-08T02:00:45.790Z,59.10
2018-06-08T02:01:17.388Z,59.02
2018-06-08T02:01:48.996Z,59.10
2018-06-08T02:02:20.624Z,59.22
2018-06-08T02:02:52.252Z,59.02
2018-06-08T02:03:23.853Z,59.13
2018-06-08T02:03:55.442Z,59.25
2018-06-08T02:04:27.030Z,59.28
2018-06-08T02:04:58.613Z,59.33
2018-06-08T02:05:30.224Z,59.29
2018-06-08T02:06:01.810Z,59.17
2018-06-08T02:06:33.424Z,59.21
2018-06-08T02:07:04.992Z,59.23
2018-06-08T02:07:36.605Z,59.20
2018-06-08T02:08:08.176Z,59.45
2018-06-08T02:08:39.750Z,59.34
2018-06-08T02:09:11.357Z,59.46
2018-06-08T02:09:43.001Z,59.24
2018-06-08T02:10:14.614Z,59.44
2018-06-08T02:10:46.188Z,59.28
2018-06-08T02:11:17.789Z,59.40
2018-06-08T02:11:49.369Z,59.24
2018-06-08T02:12:20.969Z,59.45
2018-06-08T02:12:52.563Z,59.51
2018-06-08T02:13:24.160Z,59.44
2018-06-08T02:13:55.766Z,59.36
2018-06-08T02:14:27.371Z,59.43
2018-06-08T02:14:58.977Z,59.49
2018-06-08T02:15:30.580Z,59.40
2018-06-08T02:16:02.170Z,59.49
2018-06-08T02:16:33.778Z,59.50
2018-06-08T02:17:05.380Z,59.53
2018-06-08T02:17:36.964Z,59.52
2018-06-08T02:18:08.585Z,59.57
2018-06-08T02:18:40.211Z,59.52
2018-06-08T02:19:11.794Z,59.51
2018-06-08T02:19:43.378Z,59.58
2018-06-08T02:20:14.960Z,59.78
2018-06-08T02:20:46.570Z,59.87
2018-06-08T02:21:18.179Z,59.62
2018-06-08T02:21:49.759Z,59.54
2018-06-08T02:22:21.361Z,59.68
2018-06-08T02:22:52.941Z,59.76
2018-06-08T02:23:24.598Z,59.67
2018-06-08T02:23:56.208Z,59.56
2018-06-08T02:24:27.801Z,59.73
2018-06-08T02:24:59.391Z,59.85
2018-06-08T02:25:30.997Z,60.07
2018-06-08T02:26:02.586Z,59.90
2018-06-08T02:26:34.183Z,59.85
2018-06-08T02:27:05.766Z,59.82
2018-06-08T02:27:37.369Z,59.72
2018-06-08T02:28:08.978Z,59.80
2018-06-08T02:28:40.609Z,59.68
2018-06-08T02:29:12.233Z,60.02
2018-06-08T02:29:43.860Z,60.10
2018-06-08T02:30:15.494Z,59.89
2018-06-08T02:30:47.092Z,59.86
2018-06-08T02:31:18.699Z,59.80
2018-06-08T02:31:50.291Z,59.86
2018-06-08T02:32:21.863Z,59.82
2018-06-08T02:32:53.469Z,59.95
2018-06-08T02:33:25.055Z,60.21
2018-06-08T02:33:56.634Z,59.93
2018-06-08T02:34:28.245Z,60.38
2018-06-08T02:34:59.830Z,60.02
2018-06-08T02:35:31.468Z,60.24
2018-06-08T02:36:03.068Z,60.12
2018-06-08T02:36:34.673Z,60.10
2018-06-08T02:37:06.285Z,60.39
2018-06-08T02:37:37.884Z,60.14
2018-06-08T02:38:09.470Z,60.07
2018-06-08T02:38:41.058Z,60.16
2018-06-08T02:39:12.642Z,60.11
2018-06-08T02:39:44.229Z,60.14
2018-06-08T02:40:15.840Z,60.16
2018-06-08T02:40:47.410Z,60.37
2018-06-08T02:41:19.018Z,60.41
2018-06-08T02:41:50.616Z,58.48
2018-06-08T02:42:22.246Z,56.57
2018-06-08T02:42:53.830Z,54.61
2018-06-08T02:43:25.419Z,54.85
2018-06-08T02:43:57.035Z,55.03
2018-06-08T02:44:28.614Z,55.33
2018-06-08T02:45:00.198Z,55.79
2018-06-08T02:45:31.785Z,55.95
2018-06-08T02:46:03.386Z,56.39
2018-06-08T02:46:34.967Z,56.40
2018-06-08T02:47:06.585Z,56.53
2018-06-08T02:47:38.169Z,56.87
2018-06-08T02:48:09.777Z,56.98
2018-06-08T02:48:41.357Z,57.09
2018-06-08T02:49:13.049Z,56.95
2018-06-08T02:49:44.634Z,57.18
2018-06-08T02:50:16.232Z,56.76
2018-06-08T02:50:47.845Z,56.74
2018-06-08T02:51:19.448Z,56.55
2018-06-08T02:51:51.040Z,56.52
2018-06-08T02:52:22.693Z,56.87
2018-06-08T02:52:54.287Z,56.86
2018-06-08T02:53:25.874Z,57.11
2018-06-08T02:53:57.462Z,57.25
2018-06-08T02:54:29.042Z,57.40
2018-06-08T02:55:00.641Z,57.46
2018-06-08T02:55:32.222Z,57.33
2018-06-08T02:56:03.836Z,57.46
2018-06-08T02:56:35.432Z,57.35
2018-06-08T02:57:07.054Z,57.46
2018-06-08T02:57:38.620Z,57.40
2018-06-08T02:58:10.188Z,57.42
2018-06-08T02:58:41.780Z,57.57
2018-06-08T02:59:13.375Z,57.57
2018-06-08T02:59:44.982Z,57.67
2018-06-08T03:00:16.598Z,57.59
2018-06-08T03:00:48.226Z,57.64
2018-06-08T03:01:19.877Z,57.50
2018-06-08T03:01:51.621Z,57.35
2018-06-08T03:02:23.212Z,57.18
2018-06-08T03:02:55.761Z,57.02
2018-06-08T03:03:27.444Z,56.84
2018-06-08T03:03:59.053Z,56.75
2018-06-08T03:04:30.665Z,56.68
2018-06-08T03:05:02.260Z,56.60
2018-06-08T03:05:33.870Z,56.55
2018-06-08T03:06:05.458Z,56.50
2018-06-08T03:06:37.023Z,56.43
2018-06-08T03:07:08.628Z,56.35
2018-06-08T03:07:40.222Z,56.31
2018-06-08T03:08:11.872Z,56.29
2018-06-08T03:08:43.459Z,56.27
2018-06-08T03:09:15.042Z,56.27
2018-06-08T03:09:46.632Z,56.29
2018-06-08T03:10:18.232Z,56.30
2018-06-08T03:10:49.828Z,56.28
2018-06-08T03:11:21.424Z,56.26
2018-06-08T03:11:53.032Z,56.28
2018-06-08T03:12:24.642Z,56.28
2018-06-08T03:12:56.229Z,56.27
2018-06-08T03:13:27.847Z,56.27
2018-06-08T03:13:59.430Z,56.28
2018-06-08T03:14:31.005Z,56.30
2018-06-08T03:15:02.594Z,56.32
2018-06-08T03:15:34.198Z,56.33
2018-06-08T03:16:05.768Z,56.33
2018-06-08T03:16:37.439Z,56.36
2018-06-08T03:17:09.024Z,56.36
2018-06-08T03:17:40.606Z,56.40
2018-06-08T03:18:12.181Z,56.39
2018-06-08T03:18:43.828Z,56.42
2018-06-08T03:19:15.410Z,56.42
2018-06-08T03:19:46.988Z,56.46
2018-06-08T03:20:18.598Z,56.46
2018-06-08T03:20:50.182Z,56.49
2018-06-08T03:21:21.757Z,56.51
2018-06-08T03:21:53.360Z,56.53
2018-06-08T03:22:24.945Z,56.55
2018-06-08T03:22:56.511Z,56.57
2018-06-08T03:23:28.153Z,56.60
2018-06-08T03:23:59.757Z,56.62
2018-06-08T03:24:31.351Z,56.63
2018-06-08T03:25:02.929Z,56.65
2018-06-08T03:25:34.510Z,56.67
2018-06-08T03:26:06.093Z,56.70
2018-06-08T03:26:37.702Z,56.72
2018-06-08T03:27:09.326Z,56.74
2018-06-08T03:27:40.915Z,56.77
2018-06-08T03:28:12.525Z,56.77
2018-06-08T03:28:44.104Z,56.79
2018-06-08T03:29:15.713Z,56.80
2018-06-08T03:29:47.301Z,56.80
2018-06-08T03:30:18.909Z,56.80
2018-06-08T03:30:50.517Z,56.83
2018-06-08T03:31:22.112Z,56.83
2018-06-08T03:31:53.734Z,56.84
2018-06-08T03:32:25.308Z,56.87
2018-06-08T03:32:56.958Z,56.87
2018-06-08T03:33:28.561Z,56.88
2018-06-08T03:34:00.150Z,56.88
2018-06-08T03:34:31.743Z,56.92
2018-06-08T03:35:03.343Z,56.92
2018-06-08T03:35:34.930Z,56.93
2018-06-08T03:36:06.514Z,56.94
2018-06-08T03:36:38.104Z,56.94
2018-06-08T03:37:09.713Z,56.94
2018-06-08T03:37:41.298Z,56.95
2018-06-08T03:38:12.921Z,56.95
2018-06-08T03:38:44.577Z,56.95
2018-06-08T03:39:16.153Z,56.97
2018-06-08T03:39:47.749Z,56.97
2018-06-08T03:40:19.342Z,56.96
2018-06-08T03:40:50.908Z,56.97
2018-06-08T03:41:22.489Z,56.98
2018-06-08T03:41:54.094Z,56.98
2018-06-08T03:42:25.682Z,56.98
2018-06-08T03:42:57.255Z,56.98
2018-06-08T03:43:28.857Z,56.98
2018-06-08T03:44:00.513Z,57.00
2018-06-08T03:44:32.083Z,57.00
2018-06-08T03:45:03.676Z,57.02
2018-06-08T03:45:35.259Z,57.03
2018-06-08T03:46:06.832Z,57.03
2018-06-08T03:46:38.403Z,57.03
2018-06-08T03:47:09.982Z,57.04
2018-06-08T03:47:41.551Z,57.04
2018-06-08T03:48:13.151Z,57.05
2018-06-08T03:48:44.779Z,57.07
2018-06-08T03:49:16.385Z,57.05
2018-06-08T03:49:47.969Z,57.07
2018-06-08T03:50:19.564Z,57.07
2018-06-08T03:50:51.162Z,57.08
2018-06-08T03:51:22.773Z,57.09
2018-06-08T03:51:54.347Z,57.09
2018-06-08T03:52:25.946Z,57.08
2018-06-08T03:52:57.592Z,57.09
2018-06-08T03:53:29.206Z,57.07
2018-06-08T03:54:00.793Z,57.08
2018-06-08T03:54:32.370Z,57.07
2018-06-08T03:55:04.002Z,57.07
2018-06-08T03:55:35.591Z,57.07
2018-06-08T03:56:07.188Z,57.07
2018-06-08T03:56:38.769Z,57.05
2018-06-08T03:57:10.345Z,57.06
2018-06-08T03:57:41.924Z,57.06
2018-06-08T03:58:13.564Z,57.04
2018-06-08T03:58:45.150Z,57.06
2018-06-08T03:59:16.729Z,57.07
2018-06-08T03:59:48.334Z,57.06
2018-06-08T04:00:19.909Z,57.06
2018-06-08T04:00:51.499Z,57.06
2018-06-08T04:01:23.075Z,57.03
2018-06-08T04:01:54.656Z,57.02
2018-06-08T04:02:26.263Z,57.01
2018-06-08T04:02:57.855Z,57.00
2018-06-08T04:03:29.421Z,57.01
2018-06-08T04:04:01.036Z,57.01
2018-06-08T04:04:33.390Z,57.01
2018-06-08T04:05:04.975Z,57.00
2018-06-08T04:05:36.578Z,57.00
2018-06-08T04:06:08.194Z,56.99
2018-06-08T04:06:40.276Z,57.00
2018-06-08T04:07:11.858Z,57.00
2018-06-08T04:07:43.460Z,56.99
2018-06-08T04:08:15.097Z,56.98
2018-06-08T04:08:46.677Z,56.97
2018-06-08T04:09:18.299Z,56.97
2018-06-08T04:09:49.877Z,56.98
2018-06-08T04:10:21.472Z,56.98
2018-06-08T04:10:53.044Z,56.96
2018-06-08T04:11:24.612Z,56.95
2018-06-08T04:11:56.193Z,56.94
2018-06-08T04:12:27.784Z,56.95
2018-06-08T04:12:59.361Z,56.95
2018-06-08T04:13:30.961Z,56.94
2018-06-08T04:14:02.566Z,56.92
2018-06-08T04:14:34.155Z,56.91
2018-06-08T04:15:05.737Z,56.90
2018-06-08T04:15:37.349Z,56.92
2018-06-08T04:16:08.948Z,56.88
2018-06-08T04:16:40.534Z,56.88
2018-06-08T04:17:12.117Z,56.88
2018-06-08T04:17:43.719Z,56.88
2018-06-08T04:18:15.329Z,56.90
2018-06-08T04:18:46.931Z,56.89
2018-06-08T04:19:18.593Z,56.89
2018-06-08T04:19:50.191Z,56.87
2018-06-08T04:20:21.773Z,56.85
2018-06-08T04:20:53.363Z,56.84
2018-06-08T04:21:24.994Z,56.84
2018-06-08T04:21:56.564Z,56.84
2018-06-08T04:22:28.165Z,56.82
2018-06-08T04:22:59.778Z,56.83
2018-06-08T04:23:31.386Z,56.83
2018-06-08T04:24:02.989Z,56.83
2018-06-08T04:24:34.570Z,56.82
2018-06-08T04:25:06.164Z,56.83
2018-06-08T04:25:37.747Z,56.82
2018-06-08T04:26:09.390Z,56.83
2018-06-08T04:26:40.982Z,56.82
2018-06-08T04:27:12.589Z,56.82
2018-06-08T04:27:44.183Z,56.81
2018-06-08T04:28:15.789Z,56.81
2018-06-08T04:28:47.396Z,56.77
2018-06-08T04:29:18.968Z,56.78
2018-06-08T04:29:50.549Z,56.77
2018-06-08T04:30:22.144Z,56.74
2018-06-08T04:30:53.917Z,56.74
2018-06-08T04:31:25.524Z,56.73
2018-06-08T04:31:57.133Z,56.71
2018-06-08T04:32:28.712Z,56.71
2018-06-08T04:33:00.341Z,56.70
2018-06-08T04:33:31.926Z,56.69
2018-06-08T04:34:03.527Z,56.69
2018-06-08T04:34:35.142Z,56.70
2018-06-08T04:35:06.741Z,56.70
2018-06-08T04:35:38.345Z,56.68
2018-06-08T04:36:09.998Z,56.68
2018-06-08T04:36:41.582Z,56.70
2018-06-08T04:37:13.219Z,56.70
2018-06-08T04:37:44.813Z,56.70
2018-06-08T04:38:16.420Z,56.71
2018-06-08T04:38:48.030Z,56.71
2018-06-08T04:39:19.629Z,56.72
2018-06-08T04:39:51.214Z,56.72
2018-06-08T04:40:22.861Z,56.73
2018-06-08T04:40:54.440Z,56.74
2018-06-08T04:41:26.041Z,56.76
2018-06-08T04:41:57.623Z,56.77
2018-06-08T04:42:29.228Z,56.77
2018-06-08T04:43:00.796Z,56.78
2018-06-08T04:43:32.381Z,56.79
2018-06-08T04:44:03.993Z,56.79
2018-06-08T04:44:35.568Z,56.79
2018-06-08T04:45:07.151Z,56.80
2018-06-08T04:45:38.730Z,56.80
2018-06-08T04:46:10.310Z,56.79
2018-06-08T04:46:41.942Z,56.80
2018-06-08T04:47:13.540Z,56.80
2018-06-08T04:47:45.149Z,56.80
2018-06-08T04:48:17.125Z,56.79
2018-06-08T04:48:48.705Z,56.80
2018-06-08T04:49:20.307Z,56.80
2018-06-08T04:49:51.923Z,56.80
2018-06-08T04:50:23.509Z,56.82
2018-06-08T04:50:55.136Z,56.79
2018-06-08T04:51:26.721Z,56.79
2018-06-08T04:51:58.325Z,56.79
2018-06-08T04:52:29.964Z,56.79
2018-06-08T04:53:01.554Z,56.79
2018-06-08T04:53:33.137Z,56.79
2018-06-08T04:54:04.717Z,56.78
2018-06-08T04:54:36.291Z,56.79
2018-06-08T04:55:07.869Z,56.79
2018-06-08T04:55:39.477Z,56.79
2018-06-08T04:56:11.085Z,56.79
2018-06-08T04:56:42.673Z,56.79
2018-06-08T04:57:14.295Z,56.81
2018-06-08T04:57:45.905Z,56.79
2018-06-08T04:58:17.500Z,56.79
2018-06-08T04:58:49.101Z,56.78
2018-06-08T04:59:20.685Z,56.77
2018-06-08T04:59:52.294Z,56.78
2018-06-08T05:00:23.926Z,56.77
2018-06-08T05:00:55.496Z,56.76
2018-06-08T05:01:27.097Z,56.75
2018-06-08T05:01:58.667Z,56.74
2018-06-08T05:02:30.263Z,56.73
2018-06-08T05:03:01.874Z,56.74
2018-06-08T05:03:33.458Z,56.73
2018-06-08T05:04:05.142Z,56.74
2018-06-08T05:04:36.749Z,56.73
2018-06-08T05:05:08.354Z,56.74
2018-06-08T05:05:39.993Z,56.74
2018-06-08T05:06:11.592Z,56.74
2018-06-08T05:06:43.178Z,56.76
2018-06-08T05:07:14.785Z,56.76
2018-06-08T05:07:46.430Z,56.76
2018-06-08T05:08:18.037Z,56.76
2018-06-08T05:08:49.622Z,56.76
2018-06-08T05:09:21.212Z,56.76
2018-06-08T05:09:52.784Z,56.75
2018-06-08T05:10:24.375Z,56.74
2018-06-08T05:10:56.021Z,56.75
2018-06-08T05:11:27.606Z,56.74
2018-06-08T05:11:59.175Z,56.74
2018-06-08T05:12:30.781Z,56.75
2018-06-08T05:13:02.435Z,56.75
2018-06-08T05:13:34.031Z,56.75
2018-06-08T05:14:05.613Z,56.75
2018-06-08T05:14:37.221Z,56.75
2018-06-08T05:15:08.833Z,56.76
2018-06-08T05:15:40.430Z,56.76
2018-06-08T05:16:12.109Z,56.76
2018-06-08T05:16:43.712Z,56.75
2018-06-08T05:17:15.295Z,56.77
2018-06-08T05:17:46.887Z,56.76
2018-06-08T05:18:18.533Z,56.77
2018-06-08T05:18:50.122Z,56.77
2018-06-08T05:19:21.724Z,56.79
2018-06-08T05:19:53.340Z,56.80
2018-06-08T05:20:24.951Z,56.80
2018-06-08T05:20:56.557Z,56.81
2018-06-08T05:21:28.147Z,56.82
2018-06-08T05:21:59.749Z,56.82
2018-06-08T05:22:31.410Z,56.82
2018-06-08T05:23:03.022Z,56.81
2018-06-08T05:23:34.634Z,56.81
2018-06-08T05:24:06.208Z,56.82
2018-06-08T05:24:37.785Z,56.82
2018-06-08T05:25:09.374Z,56.82
2018-06-08T05:25:40.943Z,56.83
2018-06-08T05:26:12.551Z,56.83
2018-06-08T05:26:44.161Z,56.83
2018-06-08T05:27:15.765Z,56.84
2018-06-08T05:27:47.413Z,56.85
2018-06-08T05:28:19.018Z,56.85
2018-06-08T05:28:50.630Z,56.85
2018-06-08T05:29:22.237Z,56.86
2018-06-08T05:29:53.822Z,56.86
2018-06-08T05:30:25.425Z,56.87
2018-06-08T05:30:57.002Z,56.87
2018-06-08T05:31:28.582Z,56.87
2018-06-08T05:32:00.162Z,56.87
2018-06-08T05:32:31.744Z,56.88
2018-06-08T05:33:03.382Z,56.87
2018-06-08T05:33:34.989Z,56.87
2018-06-08T05:34:06.636Z,56.88
2018-06-08T05:34:38.219Z,56.88
2018-06-08T05:35:09.808Z,56.92
2018-06-08T05:35:41.431Z,56.94
2018-06-08T05:36:13.027Z,56.93
2018-06-08T05:36:44.623Z,56.94
2018-06-08T05:37:16.249Z,56.95
2018-06-08T05:37:47.844Z,56.99
2018-06-08T05:38:19.427Z,56.95
2018-06-08T05:38:51.010Z,57.01
2018-06-08T05:39:22.636Z,56.99
2018-06-08T05:39:54.242Z,57.01
2018-06-08T05:40:25.829Z,56.98
2018-06-08T05:40:57.403Z,56.97
2018-06-08T05:41:29.013Z,56.98
2018-06-08T05:42:00.607Z,56.98
2018-06-08T05:42:32.195Z,56.97
2018-06-08T05:43:03.797Z,56.99
2018-06-08T05:43:35.390Z,57.02
2018-06-08T05:44:06.997Z,57.02
2018-06-08T05:44:38.642Z,56.99
2018-06-08T05:45:10.228Z,57.01
2018-06-08T05:45:41.853Z,57.05
2018-06-08T05:46:13.419Z,57.02
2018-06-08T05:46:45.026Z,57.00
2018-06-08T05:47:16.604Z,57.00
2018-06-08T05:47:48.185Z,56.99
2018-06-08T05:48:19.825Z,57.00
2018-06-08T05:48:51.381Z,56.99
2018-06-08T05:49:22.990Z,57.00
2018-06-08T05:49:54.594Z,57.02
2018-06-08T05:50:26.188Z,56.98
2018-06-08T05:50:57.821Z,56.98
2018-06-08T05:51:29.411Z,57.00
2018-06-08T05:52:00.997Z,57.02
2018-06-08T05:52:32.601Z,57.01
2018-06-08T05:53:04.172Z,56.98
2018-06-08T05:53:35.759Z,56.99
2018-06-08T05:54:07.352Z,57.02
2018-06-08T05:54:38.932Z,57.00
2018-06-08T05:55:10.519Z,57.03
2018-06-08T05:55:42.125Z,57.05
2018-06-08T05:56:13.710Z,57.01
2018-06-08T05:56:45.293Z,57.04
2018-06-08T05:57:16.883Z,57.07
2018-06-08T05:57:48.472Z,57.05
2018-06-08T05:58:20.078Z,57.21
2018-06-08T05:58:51.648Z,57.06
2018-06-08T05:59:23.225Z,57.01
2018-06-08T05:59:54.829Z,57.07
2018-06-08T06:00:26.433Z,57.03
2018-06-08T06:00:58.014Z,57.07
2018-06-08T06:01:29.598Z,57.01
2018-06-08T06:02:01.200Z,57.03
2018-06-08T06:02:32.794Z,57.04
2018-06-08T06:03:04.401Z,57.06
2018-06-08T06:03:35.986Z,57.04
2018-06-08T06:04:07.566Z,57.09
2018-06-08T06:04:39.144Z,57.08
2018-06-08T06:05:10.730Z,57.07
2018-06-08T06:05:42.324Z,57.11
2018-06-08T06:06:13.930Z,57.06
2018-06-08T06:06:45.582Z,57.05
2018-06-08T06:07:17.176Z,57.14
2018-06-08T06:07:48.762Z,57.09
2018-06-08T06:08:20.365Z,57.05
2018-06-08T06:08:51.950Z,57.07
2018-06-08T06:09:23.561Z,57.05
2018-06-08T06:09:55.158Z,57.03
2018-06-08T06:10:26.765Z,57.05
2018-06-08T06:10:58.432Z,57.12
2018-06-08T06:11:30.005Z,57.07
2018-06-08T06:12:01.630Z,57.06
2018-06-08T06:12:33.219Z,57.09
2018-06-08T06:13:04.821Z,57.08
2018-06-08T06:13:36.465Z,57.20
2018-06-08T06:14:08.089Z,57.05
2018-06-08T06:14:39.689Z,57.03
2018-06-08T06:15:11.264Z,57.06
2018-06-08T06:15:42.867Z,57.05
2018-06-08T06:16:14.464Z,57.04
2018-06-08T06:16:46.056Z,57.06
2018-06-08T06:17:17.709Z,57.13
2018-06-08T06:17:49.316Z,57.09
2018-06-08T06:18:20.925Z,57.05
2018-06-08T06:18:52.496Z,57.09
2018-06-08T06:19:24.092Z,57.04
2018-06-08T06:19:55.677Z,57.08
2018-06-08T06:20:27.245Z,57.01
2018-06-08T06:20:58.888Z,57.13
2018-06-08T06:21:30.474Z,57.06
2018-06-08T06:22:02.058Z,57.04
2018-06-08T06:22:33.690Z,57.03
2018-06-08T06:23:05.257Z,57.05
2018-06-08T06:23:36.857Z,57.03
2018-06-08T06:24:08.461Z,57.08
2018-06-08T06:24:40.077Z,57.03
2018-06-08T06:25:11.667Z,56.99
2018-06-08T06:25:43.259Z,57.01
2018-06-08T06:26:14.870Z,57.02
2018-06-08T06:26:46.483Z,57.02
2018-06-08T06:27:18.070Z,57.03
2018-06-08T06:27:49.893Z,57.01
2018-06-08T06:28:21.501Z,57.02
2018-06-08T06:28:53.114Z,56.99
2018-06-08T06:29:24.693Z,57.01
2018-06-08T06:29:56.299Z,56.99
2018-06-08T06:30:27.910Z,56.97
2018-06-08T06:30:59.483Z,57.00
2018-06-08T06:31:31.064Z,56.96
2018-06-08T06:32:02.665Z,56.95
2018-06-08T06:32:34.254Z,56.98
2018-06-08T06:33:05.884Z,56.98
2018-06-08T06:33:37.456Z,56.98
2018-06-08T06:34:09.062Z,56.98
2018-06-08T06:34:40.660Z,56.98
2018-06-08T06:35:12.245Z,56.96
2018-06-08T06:35:43.841Z,56.96
2018-06-08T06:36:15.436Z,57.02
2018-06-08T06:36:47.046Z,57.00
2018-06-08T06:37:18.616Z,56.96
2018-06-08T06:37:50.193Z,56.96
2018-06-08T06:38:21.797Z,56.95
2018-06-08T06:38:53.406Z,56.94
2018-06-08T06:39:25.017Z,56.92
2018-06-08T06:39:56.606Z,56.91
2018-06-08T06:40:28.181Z,56.88
2018-06-08T06:40:59.817Z,56.88
2018-06-08T06:41:31.402Z,56.86
2018-06-08T06:42:03.009Z,56.85
2018-06-08T06:42:34.618Z,56.84
2018-06-08T06:43:06.200Z,56.84
2018-06-08T06:43:37.787Z,56.83
2018-06-08T06:44:09.389Z,56.82
2018-06-08T06:44:41.001Z,56.81
2018-06-08T06:45:12.572Z,56.79
2018-06-08T06:45:44.153Z,56.80
2018-06-08T06:46:15.734Z,56.79
2018-06-08T06:46:47.324Z,56.79